Time;durP1;ratioP1;P1;durP2;ratioP2;P2;SDS_P1;SDS_P2;PMS_P1;PMS_P2;Temp;Humidity;BMP_temperature;BMP_pressure;BME280_temperature;BME280_humidity;BME280_pressure;Samples;Min_cycle;Max_cycle;Signal;HPM_P1;HPM_P2
2023/04/16 00:01:22;;;;;;;;;;;;;;;4.18;100.00;95473.41;10525872;28;2221;-78
2023/04/16 00:06:26;;;;;;;;;;;;;;;4.18;100.00;95476.06;10525385;28;2059;-77
2023/04/16 00:11:30;;;;;;;;;;;;;;;4.16;100.00;95477.38;10527974;28;2151;-76
2023/04/16 00:16:33;;;;;;;;;;;;;;;4.19;100.00;95471.56;10525005;28;2162;-74
2023/04/16 00:21:37;;;;;;;;;;;;;;;4.13;100.00;95473.31;10525578;28;2041;-75
2023/04/16 00:26:39;;;;;;;;;;;;;;;4.16;100.00;95467.53;10522382;28;2043;-76
2023/04/16 00:31:42;;;;;;;;;;;;;;;4.14;100.00;95466.97;10522194;28;2055;-75
2023/04/16 00:36:44;;;;;;;;;;;;;;;4.18;100.00;95460.09;10524696;28;2063;-75
2023/04/16 00:41:48;;;;;;;;;;;;;;;4.22;100.00;95455.94;10518661;28;2063;-74
2023/04/16 00:46:50;;;;;;;;;;;;;;;4.27;100.00;95469.31;10525261;28;2080;-75
2023/04/16 00:51:53;;;;;;;;;;;;;;;4.29;100.00;95467.22;10519030;28;2023;-74
2023/04/16 00:56:57;;;;;;;;;;;;;;;4.38;100.00;95461.47;10524876;28;1955;-74
2023/04/16 01:01:59;;;;;;;;;;;;;;;4.41;100.00;95459.16;10526852;28;2025;-74
2023/04/16 01:07:02;;;;;;;;;;;;;;;4.40;100.00;95462.06;10520364;28;1842;-75
2023/04/16 01:12:05;;;;;;;;;;;;;;;4.44;100.00;95468.50;10527884;28;1967;-74
2023/04/16 01:17:07;;;;;;;;;;;;;;;4.45;100.00;95464.78;10530248;28;1727;-76
2023/04/16 01:22:11;;;;;;;;;;;;;;;4.44;100.00;95469.31;10530627;28;1688;-78
2023/04/16 01:27:14;;;;;;;;;;;;;;;4.39;100.00;95473.72;10525467;28;2088;-75
2023/04/16 01:32:16;;;;;;;;;;;;;;;4.44;100.00;95473.81;10523309;28;1914;-73
2023/04/16 01:37:20;;;;;;;;;;;;;;;4.48;100.00;95481.09;10534129;28;1815;-74
2023/04/16 01:42:23;;;;;;;;;;;;;;;4.44;100.00;95479.16;10530107;28;1834;-75
2023/04/16 01:47:25;;;;;;;;;;;;;;;4.47;100.00;95476.00;10531124;28;2147;-78
2023/04/16 01:52:28;;;;;;;;;;;;;;;4.43;100.00;95482.84;10522653;28;1907;-76
2023/04/16 01:57:30;;;;;;;;;;;;;;;4.51;100.00;95490.44;10527264;28;1866;-75
2023/04/16 02:02:33;;;;;;;;;;;;;;;4.58;100.00;95481.25;10521868;28;1815;-74
2023/04/16 02:07:36;;;;;;;;;;;;;;;4.57;100.00;95486.81;10523291;28;1871;-74
2023/04/16 02:12:39;;;;;;;;;;;;;;;4.57;100.00;95476.16;10512360;28;2098;-74
2023/04/16 02:17:42;;;;;;;;;;;;;;;4.51;100.00;95482.44;10511313;28;2094;-74
2023/04/16 02:22:47;;;;;;;;;;;;;;;4.52;100.00;95487.56;10510078;28;2002;-75
2023/04/16 02:27:50;;;;;;;;;;;;;;;4.51;100.00;95487.78;10512582;28;2045;-75
2023/04/16 02:32:53;;;;;;;;;;;;;;;4.64;100.00;95489.31;10514197;28;1995;-74
2023/04/16 02:38:00;;;;;;;;;;;;;;;4.59;100.00;95493.50;10516618;28;2019;-76
2023/04/16 02:43:03;;;;;;;;;;;;;;;4.61;100.00;95485.28;10513649;28;2073;-75
2023/04/16 02:48:07;;;;;;;;;;;;;;;4.57;100.00;95486.81;10514155;28;2010;-74
2023/04/16 02:53:10;;;;;;;;;;;;;;;4.58;100.00;95491.91;10515278;28;2054;-75
2023/04/16 02:58:13;;;;;;;;;;;;;;;4.52;100.00;95502.72;10519198;28;2045;-75
2023/04/16 03:03:16;;;;;;;;;;;;;;;4.63;100.00;95509.78;10514546;28;1986;-75
2023/04/16 03:08:19;;;;;;;;;;;;;;;4.60;100.00;95510.28;10499502;28;2321;-75
2023/04/16 03:13:22;;;;;;;;;;;;;;;4.59;100.00;95511.34;10515630;28;1997;-74
2023/04/16 03:18:25;;;;;;;;;;;;;;;4.70;100.00;95510.44;10515305;28;2096;-75
2023/04/16 03:23:29;;;;;;;;;;;;;;;4.60;100.00;95512.94;10514248;28;2055;-74
2023/04/16 03:28:32;;;;;;;;;;;;;;;4.65;100.00;95505.06;10520240;28;1963;-76
2023/04/16 03:33:34;;;;;;;;;;;;;;;4.63;100.00;95511.66;10511476;28;2002;-77
2023/04/16 03:38:37;;;;;;;;;;;;;;;4.71;100.00;95516.56;10514738;28;2076;-75
2023/04/16 03:43:39;;;;;;;;;;;;;;;4.67;100.00;95516.25;10512622;28;2092;-75
2023/04/16 03:48:42;;;;;;;;;;;;;;;4.64;100.00;95516.72;10513186;28;2052;-76
2023/04/16 03:53:44;;;;;;;;;;;;;;;4.52;100.00;95519.50;10513385;28;2041;-76
2023/04/16 03:58:47;;;;;;;;;;;;;;;4.51;100.00;95527.69;10514719;28;2096;-75
2023/04/16 04:03:49;;;;;;;;;;;;;;;4.51;100.00;95528.50;10514248;28;1987;-75
2023/04/16 04:08:52;;;;;;;;;;;;;;;4.45;100.00;95544.63;10516206;28;2041;-74
2023/04/16 04:13:55;;;;;;;;;;;;;;;4.45;100.00;95544.63;10515306;28;2010;-76
2023/04/16 04:18:58;;;;;;;;;;;;;;;4.41;100.00;95543.50;10512490;28;2098;-77
2023/04/16 04:24:02;;;;;;;;;;;;;;;4.39;100.00;95550.91;10515001;28;2053;-75
2023/04/16 04:29:05;;;;;;;;;;;;;;;4.34;100.00;95549.00;10515903;28;2069;-75
2023/04/16 04:34:07;;;;;;;;;;;;;;;4.25;100.00;95556.53;10516276;28;2076;-75
2023/04/16 04:39:09;;;;;;;;;;;;;;;4.32;100.00;95562.50;10512586;28;2021;-75
2023/04/16 04:44:12;;;;;;;;;;;;;;;4.31;100.00;95566.22;10493303;28;2662;-76
2023/04/16 04:49:15;;;;;;;;;;;;;;;4.34;100.00;95564.97;10511505;28;2021;-78
2023/04/16 04:54:17;;;;;;;;;;;;;;;4.37;100.00;95574.31;10512578;28;2030;-77
2023/04/16 04:59:20;;;;;;;;;;;;;;;4.40;100.00;95576.50;10515910;28;2110;-75
2023/04/16 05:04:23;;;;;;;;;;;;;;;4.45;100.00;95581.88;10513624;28;2042;-75
2023/04/16 05:09:26;;;;;;;;;;;;;;;4.44;100.00;95575.75;10516565;28;1998;-78
2023/04/16 05:14:29;;;;;;;;;;;;;;;4.50;100.00;95581.97;10512642;28;2013;-76
2023/04/16 05:19:31;;;;;;;;;;;;;;;4.63;100.00;95586.19;10511085;28;2010;-76
2023/04/16 05:24:34;;;;;;;;;;;;;;;4.70;100.00;95590.31;10509443;28;2111;-76
2023/04/16 05:29:37;;;;;;;;;;;;;;;4.80;100.00;95598.47;10501004;28;1977;-77
2023/04/16 05:34:39;;;;;;;;;;;;;;;4.80;100.00;95598.47;10509807;28;2018;-74
2023/04/16 05:39:41;;;;;;;;;;;;;;;4.81;100.00;95600.09;10503569;28;2128;-75
2023/04/16 05:44:44;;;;;;;;;;;;;;;4.88;100.00;95597.28;10503051;28;2045;-76
2023/04/16 05:49:47;;;;;;;;;;;;;;;4.83;100.00;95599.84;10502409;28;2175;-76
2023/04/16 05:54:50;;;;;;;;;;;;;;;4.91;100.00;95606.66;10469721;28;2088;-75
2023/04/16 05:59:53;;;;;;;;;;;;;;;5.02;100.00;95600.41;10502993;28;2051;-74
2023/04/16 06:04:55;;;;;;;;;;;;;;;5.13;100.00;95616.31;10503762;28;2027;-77
2023/04/16 06:09:58;;;;;;;;;;;;;;;5.20;100.00;95610.81;10509609;28;2110;-74
2023/04/16 06:15:03;;;;;;;;;;;;;;;5.38;100.00;95620.41;10512777;28;2086;-76
2023/04/16 06:20:06;;;;;;;;;;;;;;;5.56;100.00;95609.50;10511217;28;2054;-76
2023/04/16 06:25:08;;;;;;;;;;;;;;;5.68;100.00;95617.38;10510125;28;2048;-76
2023/04/16 06:30:10;;;;;;;;;;;;;;;5.89;100.00;95619.25;10515150;28;1966;-76
2023/04/16 06:35:13;;;;;;;;;;;;;;;6.02;100.00;95609.31;10510830;28;2031;-76
2023/04/16 06:40:15;;;;;;;;;;;;;;;5.96;100.00;95622.56;10508867;28;2091;-76
2023/04/16 06:45:18;;;;;;;;;;;;;;;6.01;100.00;95631.72;10505931;28;2008;-76
2023/04/16 06:50:22;;;;;;;;;;;;;;;6.28;100.00;95635.22;10492819;28;2087;-76
2023/04/16 06:55:34;;;;;;;;;;;;;;;6.61;100.00;95633.44;10518130;28;2065;-76
2023/04/16 07:00:37;;;;;;;;;;;;;;;6.60;100.00;95639.84;10515255;28;2011;-74
2023/04/16 07:05:41;;;;;;;;;;;;;;;6.73;100.00;95642.91;10558867;28;1999;-75
2023/04/16 07:10:44;;;;;;;;;;;;;;;6.85;100.00;95648.13;10531932;27;2020;-76
2023/04/16 07:15:56;;;;;;;;;;;;;;;6.73;100.00;95644.78;10553024;27;2004;-76
2023/04/16 07:20:59;;;;;;;;;;;;;;;6.88;100.00;95649.50;10539298;28;2075;-74
2023/04/16 07:26:03;;;;;;;;;;;;;;;7.00;100.00;95650.13;10557473;27;2035;-73
2023/04/16 07:31:05;;;;;;;;;;;;;;;6.68;100.00;95650.06;10560219;27;1992;-73
2023/04/16 07:36:08;;;;;;;;;;;;;;;6.74;100.00;95651.75;10557644;28;2076;-76
2023/04/16 07:41:10;;;;;;;;;;;;;;;6.75;100.00;95656.03;10535593;28;2144;-76
2023/04/16 07:46:13;;;;;;;;;;;;;;;6.99;100.00;95656.53;10555939;28;2003;-76
2023/04/16 07:51:16;;;;;;;;;;;;;;;7.03;100.00;95661.13;10550640;27;2028;-76
2023/04/16 07:56:20;;;;;;;;;;;;;;;7.20;100.00;95662.88;10555379;28;2026;-76
2023/04/16 08:01:23;;;;;;;;;;;;;;;7.30;100.00;95657.59;10553163;27;2038;-76
2023/04/16 08:06:26;;;;;;;;;;;;;;;7.29;100.00;95656.78;10536137;28;2098;-75
2023/04/16 08:11:29;;;;;;;;;;;;;;;7.43;100.00;95659.81;10542560;27;2085;-78
2023/04/16 08:16:32;;;;;;;;;;;;;;;7.71;100.00;95655.22;10552564;28;2045;-77
2023/04/16 08:21:34;;;;;;;;;;;;;;;8.02;100.00;95657.00;10551023;28;2063;-77
2023/04/16 08:26:37;;;;;;;;;;;;;;;8.37;100.00;95668.97;10553916;28;2171;-76
2023/04/16 08:31:39;;;;;;;;;;;;;;;8.88;100.00;95663.75;10556929;27;2172;-75
2023/04/16 08:36:42;;;;;;;;;;;;;;;8.75;100.00;95664.28;10552133;27;2098;-74
2023/04/16 08:41:45;;;;;;;;;;;;;;;9.32;100.00;95663.28;10556649;28;1969;-75
2023/04/16 08:46:47;;;;;;;;;;;;;;;9.00;100.00;95671.56;10555200;28;1988;-74
2023/04/16 08:51:51;;;;;;;;;;;;;;;9.36;100.00;95667.06;10555078;28;2017;-76
2023/04/16 08:56:54;;;;;;;;;;;;;;;9.64;100.00;95666.47;10555427;27;1990;-75
2023/04/16 09:01:57;;;;;;;;;;;;;;;9.88;100.00;95672.09;10530048;28;1979;-76
2023/04/16 09:07:00;;;;;;;;;;;;;;;10.22;100.00;95677.66;10553734;28;2059;-75
2023/04/16 09:12:02;;;;;;;;;;;;;;;10.67;100.00;95678.59;10556849;28;1979;-74
2023/04/16 09:17:05;;;;;;;;;;;;;;;10.74;100.00;95681.78;10555155;28;2124;-75
2023/04/16 09:22:07;;;;;;;;;;;;;;;10.93;100.00;95681.13;10557216;28;2031;-77
2023/04/16 09:27:10;;;;;;;;;;;;;;;10.92;100.00;95687.59;10569393;27;2162;-75
2023/04/16 09:32:14;;;;;;;;;;;;;;;10.79;100.00;95681.75;10566624;28;1778;-74
2023/04/16 09:37:16;;;;;;;;;;;;;;;10.45;100.00;95680.84;10575965;27;1934;-73
2023/04/16 09:42:19;;;;;;;;;;;;;;;10.26;100.00;95686.81;10581408;27;1786;-76
2023/04/16 09:47:22;;;;;;;;;;;;;;;10.65;100.00;95688.00;10576468;28;2186;-75
2023/04/16 09:52:26;;;;;;;;;;;;;;;11.16;100.00;95680.47;10571477;28;1821;-78
2023/04/16 09:57:30;;;;;;;;;;;;;;;10.98;100.00;95683.81;10574307;28;1984;-74
2023/04/16 10:02:33;;;;;;;;;;;;;;;11.29;100.00;95690.59;10573162;28;1844;-75
2023/04/16 10:07:36;;;;;;;;;;;;;;;10.98;100.00;95683.81;10570056;28;1711;-76
2023/04/16 10:12:38;;;;;;;;;;;;;;;11.29;100.00;95693.28;10568434;28;1846;-74
2023/04/16 10:17:41;;;;;;;;;;;;;;;11.05;100.00;95689.69;10569722;28;1918;-78
2023/04/16 10:22:43;;;;;;;;;;;;;;;11.25;100.00;95694.91;10567449;28;1817;-76
2023/04/16 10:27:47;;;;;;;;;;;;;;;11.01;100.00;95691.34;10569441;28;1702;-77
2023/04/16 10:32:49;;;;;;;;;;;;;;;11.32;100.00;95690.06;10568453;28;1770;-77
2023/04/16 10:37:52;;;;;;;;;;;;;;;11.49;100.00;95688.84;10570895;28;2004;-77
2023/04/16 10:42:55;;;;;;;;;;;;;;;11.04;100.00;95688.88;10563346;28;1824;-76
2023/04/16 10:47:57;;;;;;;;;;;;;;;10.99;100.00;95693.47;10571929;28;1805;-77
2023/04/16 10:53:00;;;;;;;;;;;;;;;11.22;100.00;95692.81;10569874;27;1970;-79
2023/04/16 10:58:03;;;;;;;;;;;;;;;11.45;100.00;95696.69;10575151;27;1774;-78
2023/04/16 11:03:06;;;;;;;;;;;;;;;10.86;100.00;95702.16;10575014;28;1789;-78
2023/04/16 11:08:09;;;;;;;;;;;;;;;10.46;100.00;95709.31;10582867;27;1795;-75
2023/04/16 11:13:12;;;;;;;;;;;;;;;10.63;100.00;95707.13;10575510;27;1909;-78
2023/04/16 11:18:15;;;;;;;;;;;;;;;10.81;100.00;95711.88;10581978;27;1836;-77
2023/04/16 11:23:17;;;;;;;;;;;;;;;10.72;100.00;95713.50;10575993;27;1765;-77
2023/04/16 11:28:25;;;;;;;;;;;;;;;10.77;100.00;95716.19;10575933;27;1781;-77
2023/04/16 11:33:27;;;;;;;;;;;;;;;11.60;100.00;95712.72;10571256;27;1978;-77
2023/04/16 11:38:30;;;;;;;;;;;;;;;12.04;100.00;95711.03;10572998;28;1765;-76
2023/04/16 11:43:33;;;;;;;;;;;;;;;12.58;100.00;95715.31;10573777;28;1908;-78
2023/04/16 11:48:36;;;;;;;;;;;;;;;12.82;100.00;95710.69;10564007;27;1864;-77
2023/04/16 11:53:39;;;;;;;;;;;;;;;12.19;100.00;95710.88;10585633;27;1890;-78
2023/04/16 11:58:42;;;;;;;;;;;;;;;11.85;100.00;95719.81;10576857;28;1842;-77
2023/04/16 12:03:48;;;;;;;;;;;;;;;11.45;100.00;95726.31;10578326;27;2023;-78
2023/04/16 12:08:51;;;;;;;;;;;;;;;11.70;100.00;95727.16;10569672;28;1783;-79
2023/04/16 12:13:54;;;;;;;;;;;;;;;11.95;100.00;95724.28;10570812;27;1902;-78
2023/04/16 12:18:56;;;;;;;;;;;;;;;12.05;100.00;95718.03;10576780;27;1758;-77
2023/04/16 12:24:00;;;;;;;;;;;;;;;11.66;100.00;95721.56;10557884;28;2020;-77
2023/04/16 12:29:11;;;;;;;;;;;;;;;11.44;100.00;95730.06;10571239;28;2015;-77
2023/04/16 12:34:24;;;;;;;;;;;;;;;10.80;100.00;95731.75;10546737;28;1976;-75
2023/04/16 12:39:57;;;;;;;;;;;;;;;10.71;100.00;95728.03;10543571;28;1980;-73
2023/04/16 12:45:10;;;;;;;;;;;;;;;10.42;100.00;95729.75;10567073;27;2121;-73
2023/04/16 12:50:16;;;;;;;;;;;;;;;10.47;100.00;95733.22;10568844;28;1964;-73
2023/04/16 12:55:22;;;;;;;;;;;;;;;10.45;100.00;95739.97;10558955;28;1998;-71
2023/04/16 13:00:32;;;;;;;;;;;;;;;10.38;100.00;95737.56;10568110;28;2781;-75
2023/04/16 13:05:35;;;;;;;;;;;;;;;10.36;100.00;95733.53;10567472;28;2020;-73
2023/04/16 13:10:38;;;;;;;;;;;;;;;10.21;100.00;95734.34;10568265;27;1916;-76
2023/04/16 13:15:41;;;;;;;;;;;;;;;10.22;100.00;95736.75;10568503;27;2095;-75
2023/04/16 13:21:04;;;;;;;;;;;;;;;9.95;100.00;95731.69;10561101;28;2030;-74
2023/04/16 13:26:26;;;;;;;;;;;;;;;10.13;100.00;95737.59;10557989;28;1968;-72
2023/04/16 13:31:29;;;;;;;;;;;;;;;10.05;100.00;95738.13;10564151;27;1946;-73
2023/04/16 13:36:39;;;;;;;;;;;;;;;9.62;100.00;95743.00;10568541;27;2041;-73
2023/04/16 13:41:41;;;;;;;;;;;;;;;9.57;100.00;95756.41;10568258;28;1952;-77
2023/04/16 13:46:46;;;;;;;;;;;;;;;9.27;100.00;95749.91;10549219;28;2110;-74
2023/04/16 13:51:55;;;;;;;;;;;;;;;9.25;100.00;95764.66;10566662;28;1992;-73
2023/04/16 13:56:57;;;;;;;;;;;;;;;9.33;100.00;95761.47;10557737;28;1969;-73
2023/04/16 14:02:07;;;;;;;;;;;;;;;9.25;100.00;95770.03;10559270;28;2024;-73
2023/04/16 14:07:24;;;;;;;;;;;;;;;9.19;100.00;95771.91;10566017;28;1997;-73
2023/04/16 14:12:37;;;;;;;;;;;;;;;9.42;100.00;95765.25;10565326;28;2066;-73
2023/04/16 14:17:42;;;;;;;;;;;;;;;9.47;100.00;95763.34;10569600;28;1980;-75
2023/04/16 14:22:55;;;;;;;;;;;;;;;9.69;100.00;95760.44;10564955;28;1936;-75
2023/04/16 14:27:59;;;;;;;;;;;;;;;9.60;100.00;95764.69;10574584;27;2035;-75
2023/04/16 14:33:03;;;;;;;;;;;;;;;9.44;100.00;95758.53;10570464;28;2087;-73
2023/04/16 14:38:15;;;;;;;;;;;;;;;9.58;100.00;95763.38;10557447;28;1941;-73
2023/04/16 14:43:18;;;;;;;;;;;;;;;9.70;100.00;95762.03;10573760;27;2178;-72
2023/04/16 14:48:21;;;;;;;;;;;;;;;9.93;100.00;95755.34;10588442;27;2198;-74
2023/04/16 14:53:25;;;;;;;;;;;;;;;10.08;100.00;95762.56;10556560;28;2044;-73
2023/04/16 14:58:28;;;;;;;;;;;;;;;10.09;100.00;95758.78;10576269;27;2006;-74
2023/04/16 15:03:32;;;;;;;;;;;;;;;10.33;100.00;95752.88;10576089;28;2052;-74
2023/04/16 15:08:35;;;;;;;;;;;;;;;10.31;100.00;95755.03;10578072;28;1991;-75
2023/04/16 15:13:38;;;;;;;;;;;;;;;10.28;100.00;95761.75;10578040;27;1982;-73
2023/04/16 15:18:41;;;;;;;;;;;;;;;9.96;100.00;95764.72;10573000;27;2198;-74
2023/04/16 15:23:43;;;;;;;;;;;;;;;10.17;100.00;95763.63;10573637;28;2035;-73
2023/04/16 15:28:46;;;;;;;;;;;;;;;10.51;100.00;95758.50;10576373;27;2034;-74
2023/04/16 15:33:49;;;;;;;;;;;;;;;10.46;100.00;95763.06;10568526;28;2000;-75
2023/04/16 15:38:51;;;;;;;;;;;;;;;10.79;100.00;95767.00;10565075;28;2012;-75
2023/04/16 15:43:54;;;;;;;;;;;;;;;10.71;100.00;95768.38;10565261;27;2019;-74
2023/04/16 15:49:01;;;;;;;;;;;;;;;10.89;100.00;95766.16;10568395;28;2014;-76
2023/04/16 15:54:05;;;;;;;;;;;;;;;10.69;100.00;95765.16;10569146;28;2012;-75
2023/04/16 15:59:19;;;;;;;;;;;;;;;10.58;100.00;95776.22;10553813;27;1973;-74
2023/04/16 16:04:31;;;;;;;;;;;;;;;10.53;100.00;95779.72;10564599;27;1913;-73
2023/04/16 16:09:36;;;;;;;;;;;;;;;10.56;100.00;95765.75;10569720;28;1913;-74
2023/04/16 16:14:49;;;;;;;;;;;;;;;10.33;100.00;95774.38;10574445;27;1916;-73
2023/04/16 16:19:55;;;;;;;;;;;;;;;9.98;100.00;95775.97;10570187;27;1969;-74
2023/04/16 16:24:57;;;;;;;;;;;;;;;9.85;100.00;95780.03;10568945;27;2048;-73
2023/04/16 16:30:05;;;;;;;;;;;;;;;10.40;100.00;95778.41;10553203;27;1940;-71
2023/04/16 16:35:08;;;;;;;;;;;;;;;10.09;100.00;95788.34;10567668;27;2046;-75
2023/04/16 16:40:13;;;;;;;;;;;;;;;9.52;100.00;95780.53;10568373;28;1961;-76
2023/04/16 16:45:15;;;;;;;;;;;;;;;9.71;100.00;95785.13;10566900;27;2060;-73
2023/04/16 16:50:19;;;;;;;;;;;;;;;9.51;100.00;95789.66;10567439;28;1977;-75
2023/04/16 16:55:22;;;;;;;;;;;;;;;9.35;100.00;95796.88;10561070;28;2119;-74
2023/04/16 17:00:26;;;;;;;;;;;;;;;9.19;100.00;95804.88;10577744;27;2092;-75
2023/04/16 17:05:30;;;;;;;;;;;;;;;9.02;100.00;95800.78;10570213;27;1864;-74
2023/04/16 17:10:32;;;;;;;;;;;;;;;8.84;100.00;95802.06;10569491;27;1960;-74
2023/04/16 17:15:35;;;;;;;;;;;;;;;8.68;100.00;95803.88;10569992;27;1981;-76
2023/04/16 17:20:37;;;;;;;;;;;;;;;8.33;100.00;95809.78;10572408;27;1801;-75
2023/04/16 17:25:39;;;;;;;;;;;;;;;8.32;100.00;95818.88;10582574;27;1719;-77
2023/04/16 17:30:43;;;;;;;;;;;;;;;8.17;100.00;95832.19;10572913;28;1781;-76
2023/04/16 17:35:46;;;;;;;;;;;;;;;7.93;100.00;95829.84;10536280;27;1910;-74
2023/04/16 17:40:49;;;;;;;;;;;;;;;7.81;100.00;95832.69;10576568;27;1769;-77
2023/04/16 17:45:52;;;;;;;;;;;;;;;7.56;100.00;95840.47;10576105;28;1769;-76
2023/04/16 17:50:55;;;;;;;;;;;;;;;7.31;100.00;95849.03;10572310;28;1734;-76
2023/04/16 17:55:58;;;;;;;;;;;;;;;7.03;100.00;95848.22;10571908;28;1910;-76
2023/04/16 18:01:03;;;;;;;;;;;;;;;6.96;100.00;95860.94;10567163;28;2072;-73
2023/04/16 18:06:06;;;;;;;;;;;;;;;7.07;100.00;95875.25;10573159;28;1822;-75
2023/04/16 18:11:08;;;;;;;;;;;;;;;7.21;100.00;95873.00;10582333;28;1702;-76
2023/04/16 18:16:11;;;;;;;;;;;;;;;7.21;100.00;95886.38;10581270;28;1949;-75
2023/04/16 18:21:14;;;;;;;;;;;;;;;7.33;100.00;95887.06;10564779;28;1754;-77
2023/04/16 18:26:16;;;;;;;;;;;;;;;7.31;100.00;95891.81;10581465;28;1734;-76
2023/04/16 18:31:24;;;;;;;;;;;;;;;7.39;100.00;95883.38;10552521;28;1854;-76
2023/04/16 18:36:26;;;;;;;;;;;;;;;7.43;100.00;95895.19;10571450;28;1902;-76
2023/04/16 18:41:29;;;;;;;;;;;;;;;7.36;100.00;95899.09;10570086;28;1754;-76
2023/04/16 18:46:33;;;;;;;;;;;;;;;7.44;100.00;95895.97;10568454;28;1777;-75
2023/04/16 18:51:35;;;;;;;;;;;;;;;7.49;100.00;95904.06;10572655;28;1772;-75
2023/04/16 18:56:38;;;;;;;;;;;;;;;7.49;100.00;95915.56;10557734;28;1909;-78
2023/04/16 19:01:40;;;;;;;;;;;;;;;7.43;100.00;95924.59;10567328;28;1780;-78
2023/04/16 19:06:43;;;;;;;;;;;;;;;7.38;100.00;95927.25;10570748;28;1769;-77
2023/04/16 19:11:49;;;;;;;;;;;;;;;7.38;100.00;95929.91;10558614;28;1886;-74
2023/04/16 19:16:52;;;;;;;;;;;;;;;7.35;100.00;95933.06;10575261;27;1921;-75
2023/04/16 19:21:55;;;;;;;;;;;;;;;7.43;100.00;95937.97;10577427;27;1726;-76
2023/04/16 19:26:57;;;;;;;;;;;;;;;7.26;100.00;95932.72;10574902;27;1960;-76
2023/04/16 19:32:00;;;;;;;;;;;;;;;7.27;100.00;95933.50;10564074;28;2027;-76
2023/04/16 19:37:02;;;;;;;;;;;;;;;7.12;100.00;95935.97;10569545;27;2194;-76
2023/04/16 19:42:05;;;;;;;;;;;;;;;6.93;100.00;95930.09;10567094;27;1983;-77
2023/04/16 19:47:07;;;;;;;;;;;;;;;6.81;100.00;95940.91;10568222;27;1974;-75
2023/04/16 19:52:09;;;;;;;;;;;;;;;6.61;100.00;95946.75;10569489;27;1946;-76
2023/04/16 19:57:21;;;;;;;;;;;;;;;6.46;100.00;95936.66;10569354;27;1948;-77
2023/04/16 20:02:24;;;;;;;;;;;;;;;6.29;100.00;95948.38;10554562;28;2054;-76
2023/04/16 20:07:27;;;;;;;;;;;;;;;6.15;100.00;95950.56;10565344;28;1969;-77
2023/04/16 20:12:30;;;;;;;;;;;;;;;5.97;100.00;95946.22;10554502;27;1991;-76
2023/04/16 20:17:32;;;;;;;;;;;;;;;5.93;100.00;95955.78;10558613;28;1991;-75
2023/04/16 20:22:36;;;;;;;;;;;;;;;5.77;100.00;95957.31;10561456;27;2065;-77
2023/04/16 20:27:39;;;;;;;;;;;;;;;5.65;100.00;95953.88;10564101;27;2115;-77
2023/04/16 20:32:41;;;;;;;;;;;;;;;5.55;100.00;95953.72;10570700;27;1977;-78
2023/04/16 20:37:44;;;;;;;;;;;;;;;5.55;100.00;95954.50;10571744;27;2137;-76
2023/04/16 20:42:46;;;;;;;;;;;;;;;5.60;100.00;95951.16;10561791;28;2407;-75
2023/04/16 20:47:48;;;;;;;;;;;;;;;5.54;100.00;95946.75;10572729;27;2007;-77
2023/04/16 20:52:51;;;;;;;;;;;;;;;5.52;100.00;95948.84;10550910;28;2054;-76
2023/04/16 20:57:53;;;;;;;;;;;;;;;5.41;100.00;95953.97;10563963;28;2035;-76
2023/04/16 21:02:56;;;;;;;;;;;;;;;5.38;100.00;95954.44;10567600;28;1961;-76
2023/04/16 21:07:59;;;;;;;;;;;;;;;5.33;100.00;95965.00;10565356;27;2195;-79
2023/04/16 21:13:02;;;;;;;;;;;;;;;5.30;100.00;95957.47;10569351;28;1984;-76
2023/04/16 21:18:05;;;;;;;;;;;;;;;5.37;100.00;95962.69;10569848;27;2071;-76
2023/04/16 21:23:07;;;;;;;;;;;;;;;5.62;100.00;95962.38;10568179;27;1960;-77
2023/04/16 21:28:09;;;;;;;;;;;;;;;5.86;100.00;95971.09;10564513;28;2046;-75
2023/04/16 21:33:13;;;;;;;;;;;;;;;5.93;100.00;95956.59;10557864;28;2001;-76
2023/04/16 21:38:15;;;;;;;;;;;;;;;6.13;100.00;95950.00;10564785;27;1989;-76
2023/04/16 21:43:18;;;;;;;;;;;;;;;6.22;100.00;95960.00;10564607;28;1934;-75
2023/04/16 21:48:21;;;;;;;;;;;;;;;6.34;100.00;95951.94;10565706;28;2037;-77
2023/04/16 21:53:23;;;;;;;;;;;;;;;6.38;100.00;95954.94;10562988;28;1990;-76
2023/04/16 21:58:26;;;;;;;;;;;;;;;6.43;100.00;95950.50;10562516;28;1981;-77
2023/04/16 22:03:30;;;;;;;;;;;;;;;6.37;100.00;95951.47;10562967;28;1993;-75
2023/04/16 22:08:33;;;;;;;;;;;;;;;6.35;100.00;95942.88;10564885;28;2049;-77
2023/04/16 22:13:36;;;;;;;;;;;;;;;6.32;100.00;95940.69;10555613;28;2010;-77
2023/04/16 22:18:40;;;;;;;;;;;;;;;6.33;100.00;95939.66;10559040;28;2080;-77
2023/04/16 22:23:43;;;;;;;;;;;;;;;6.35;100.00;95939.41;10565025;28;2018;-78
2023/04/16 22:28:46;;;;;;;;;;;;;;;6.26;100.00;95944.34;10572400;28;2034;-77
2023/04/16 22:33:49;;;;;;;;;;;;;;;6.14;100.00;95935.59;10566236;28;2038;-76
2023/04/16 22:38:53;;;;;;;;;;;;;;;5.97;100.00;95933.69;10567615;28;2041;-75
2023/04/16 22:43:55;;;;;;;;;;;;;;;5.72;100.00;95933.22;10564948;28;2013;-76
2023/04/16 22:48:57;;;;;;;;;;;;;;;5.49;100.00;95938.66;10568529;27;2034;-79
2023/04/16 22:54:00;;;;;;;;;;;;;;;5.32;100.00;95947.38;10567061;27;2061;-77
2023/04/16 22:59:02;;;;;;;;;;;;;;;5.18;100.00;95938.03;10562984;28;2081;-76
2023/04/16 23:04:05;;;;;;;;;;;;;;;5.09;100.00;95945.59;10570457;27;2158;-75
2023/04/16 23:09:07;;;;;;;;;;;;;;;5.00;100.00;95940.84;10571745;27;2051;-77
2023/04/16 23:14:09;;;;;;;;;;;;;;;4.91;100.00;95936.94;10576444;27;2038;-76
2023/04/16 23:19:13;;;;;;;;;;;;;;;4.80;100.00;95944.69;10571908;27;2050;-75
2023/04/16 23:24:16;;;;;;;;;;;;;;;4.70;100.00;95947.13;10569921;27;2163;-74
2023/04/16 23:29:19;;;;;;;;;;;;;;;4.65;100.00;95952.34;10574965;27;2045;-75
2023/04/16 23:34:22;;;;;;;;;;;;;;;4.61;100.00;95945.88;10573977;27;2041;-76
2023/04/16 23:39:26;;;;;;;;;;;;;;;4.66;100.00;95945.19;10579309;27;2097;-76
2023/04/16 23:44:28;;;;;;;;;;;;;;;4.83;100.00;95943.41;10570638;27;2062;-76
2023/04/16 23:49:31;;;;;;;;;;;;;;;4.99;100.00;95944.56;10568959;27;2029;-77
2023/04/16 23:54:34;;;;;;;;;;;;;;;5.12;100.00;95936.31;10569408;27;2101;-76
2023/04/16 23:59:36;;;;;;;;;;;;;;;5.16;100.00;95937.47;10570857;27;2083;-76
